sensor_id;sensor_type;location;lat;lon;timestamp;pressure;altitude;pressure_sealevel;temperature;humidity
61484;BME280;47349;55.640;37.692;2024-02-21T00:58:32;100042.78;;;-8.39;100.00
61484;BME280;47349;55.640;37.692;2024-02-21T01:01:25;100067.06;;;-8.13;100.00
61484;BME280;47349;55.640;37.692;2024-02-21T02:32:23;100010.41;;;-7.29;100.00
61484;BME280;47349;55.640;37.692;2024-02-21T03:08:05;99979.56;;;-7.16;100.00
61484;BME280;47349;55.640;37.692;2024-02-21T03:10:50;99949.84;;;-7.34;100.00
61484;BME280;47349;55.640;37.692;2024-02-21T03:13:33;99968.41;;;-7.19;100.00
61484;BME280;47349;55.640;37.692;2024-02-21T03:16:28;99970.72;;;-7.12;100.00
61484;BME280;47349;55.640;37.692;2024-02-21T03:19:10;99944.06;;;-7.18;100.00
61484;BME280;47349;55.640;37.692;2024-02-21T03:21:55;99928.13;;;-7.33;100.00
61484;BME280;47349;55.640;37.692;2024-02-21T03:24:42;99914.19;;;-7.32;100.00
61484;BME280;47349;55.640;37.692;2024-02-21T03:27:25;99975.84;;;-6.87;100.00
61484;BME280;47349;55.640;37.692;2024-02-21T03:30:13;99947.56;;;-6.96;100.00
61484;BME280;47349;55.640;37.692;2024-02-21T03:32:59;99953.91;;;-7.03;100.00
61484;BME280;47349;55.640;37.692;2024-02-21T03:36:22;99983.31;;;-6.78;100.00
61484;BME280;47349;55.640;37.692;2024-02-21T03:39:05;99948.44;;;-6.97;100.00
61484;BME280;47349;55.640;37.692;2024-02-21T03:41:47;99998.06;;;-6.77;100.00
61484;BME280;47349;55.640;37.692;2024-02-21T03:44:57;99990.78;;;-6.68;100.00
61484;BME280;47349;55.640;37.692;2024-02-21T03:48:13;99892.94;;;-7.21;100.00
61484;BME280;47349;55.640;37.692;2024-02-21T03:50:58;99936.34;;;-6.98;100.00
61484;BME280;47349;55.640;37.692;2024-02-21T03:54:04;99980.69;;;-6.78;100.00
61484;BME280;47349;55.640;37.692;2024-02-21T03:56:48;99951.97;;;-6.98;100.00
61484;BME280;47349;55.640;37.692;2024-02-21T03:59:35;99936.75;;;-6.87;100.00
61484;BME280;47349;55.640;37.692;2024-02-21T04:02:18;99946.06;;;-6.80;100.00
61484;BME280;47349;55.640;37.692;2024-02-21T04:05:03;100008.38;;;-6.52;100.00
61484;BME280;47349;55.640;37.692;2024-02-21T04:07:47;99954.31;;;-6.92;100.00
61484;BME280;47349;55.640;37.692;2024-02-21T04:10:32;99952.94;;;-6.79;100.00
61484;BME280;47349;55.640;37.692;2024-02-21T04:13:17;99908.94;;;-7.08;100.00
61484;BME280;47349;55.640;37.692;2024-02-21T04:16:23;99931.88;;;-6.94;100.00
61484;BME280;47349;55.640;37.692;2024-02-21T04:19:28;99997.09;;;-6.52;100.00
61484;BME280;47349;55.640;37.692;2024-02-21T04:22:14;99944.34;;;-6.81;100.00
61484;BME280;47349;55.640;37.692;2024-02-21T04:25:00;99939.50;;;-6.90;100.00
61484;BME280;47349;55.640;37.692;2024-02-21T04:27:44;99977.38;;;-6.59;100.00
61484;BME280;47349;55.640;37.692;2024-02-21T04:30:32;99998.44;;;-6.42;100.00
61484;BME280;47349;55.640;37.692;2024-02-21T04:33:14;99922.63;;;-7.03;100.00
61484;BME280;47349;55.640;37.692;2024-02-21T04:36:01;99988.97;;;-6.44;100.00
61484;BME280;47349;55.640;37.692;2024-02-21T04:39:06;99947.50;;;-6.73;100.00
61484;BME280;47349;55.640;37.692;2024-02-21T04:43:16;99966.00;;;-6.57;100.00
61484;BME280;47349;55.640;37.692;2024-02-21T04:52:44;99967.75;;;-6.57;100.00
61484;BME280;47349;55.640;37.692;2024-02-21T04:55:12;99995.94;;;-6.45;100.00
61484;BME280;47349;55.640;37.692;2024-02-21T04:57:39;99953.91;;;-6.59;100.00
61484;BME280;47349;55.640;37.692;2024-02-21T05:00:20;99965.84;;;-6.54;100.00
61484;BME280;47349;55.640;37.692;2024-02-21T05:02:49;99978.72;;;-6.49;100.00
61484;BME280;47349;55.640;37.692;2024-02-21T05:05:17;99989.81;;;-6.44;100.00
61484;BME280;47349;55.640;37.692;2024-02-21T05:07:58;99967.38;;;-6.48;100.00
61484;BME280;47349;55.640;37.692;2024-02-21T05:10:26;99957.56;;;-6.63;100.00
61484;BME280;47349;55.640;37.692;2024-02-21T05:12:55;99959.69;;;-6.51;100.00
61484;BME280;47349;55.640;37.692;2024-02-21T05:15:22;99903.84;;;-6.67;100.00
61484;BME280;47349;55.640;37.692;2024-02-21T05:17:51;99954.09;;;-6.42;100.00
61484;BME280;47349;55.640;37.692;2024-02-21T05:20:29;99962.22;;;-6.28;100.00
61484;BME280;47349;55.640;37.692;2024-02-21T05:23:17;100001.56;;;-6.12;100.00
61484;BME280;47349;55.640;37.692;2024-02-21T05:25:58;99951.50;;;-6.42;100.00
61484;BME280;47349;55.640;37.692;2024-02-21T05:28:38;99935.22;;;-6.49;100.00
61484;BME280;47349;55.640;37.692;2024-02-21T05:31:07;99964.69;;;-6.25;100.00
61484;BME280;47349;55.640;37.692;2024-02-21T05:33:48;99928.66;;;-6.57;100.00
61484;BME280;47349;55.640;37.692;2024-02-21T05:36:25;100027.13;;;-6.00;100.00
61484;BME280;47349;55.640;37.692;2024-02-21T05:38:58;99962.97;;;-6.26;100.00
61484;BME280;47349;55.640;37.692;2024-02-21T05:41:39;99969.00;;;-6.24;100.00
61484;BME280;47349;55.640;37.692;2024-02-21T05:44:13;99917.97;;;-6.51;100.00
61484;BME280;47349;55.640;37.692;2024-02-21T05:46:46;99925.66;;;-6.48;100.00
61484;BME280;47349;55.640;37.692;2024-02-21T05:49:14;99928.53;;;-6.34;100.00
61484;BME280;47349;55.640;37.692;2024-02-21T05:51:41;99959.94;;;-6.15;100.00
61484;BME280;47349;55.640;37.692;2024-02-21T05:54:22;99990.78;;;-5.84;100.00
61484;BME280;47349;55.640;37.692;2024-02-21T05:56:56;99971.56;;;-6.02;100.00
61484;BME280;47349;55.640;37.692;2024-02-21T05:59:38;99952.53;;;-6.04;100.00
61484;BME280;47349;55.640;37.692;2024-02-21T06:02:07;99984.56;;;-5.81;100.00
61484;BME280;47349;55.640;37.692;2024-02-21T06:04:35;99978.50;;;-5.82;100.00
61484;BME280;47349;55.640;37.692;2024-02-21T06:07:26;99964.28;;;-5.75;100.00
61484;BME280;47349;55.640;37.692;2024-02-21T06:10:10;99966.50;;;-5.86;100.00
61484;BME280;47349;55.640;37.692;2024-02-21T06:12:52;100005.41;;;-5.59;100.00
61484;BME280;47349;55.640;37.692;2024-02-21T06:15:22;100014.84;;;-5.57;100.00
61484;BME280;47349;55.640;37.692;2024-02-21T06:17:51;99968.19;;;-5.64;100.00
61484;BME280;47349;55.640;37.692;2024-02-21T06:20:32;100010.06;;;-5.47;100.00
61484;BME280;47349;55.640;37.692;2024-02-21T06:23:06;99952.00;;;-5.73;100.00
61484;BME280;47349;55.640;37.692;2024-02-21T06:25:34;99956.38;;;-5.73;100.00
61484;BME280;47349;55.640;37.692;2024-02-21T06:28:05;99955.66;;;-5.77;100.00
61484;BME280;47349;55.640;37.692;2024-02-21T06:30:37;99993.28;;;-5.42;100.00
61484;BME280;47349;55.640;37.692;2024-02-21T06:33:09;99998.31;;;-5.37;100.00
61484;BME280;47349;55.640;37.692;2024-02-21T06:35:37;99926.25;;;-5.61;100.00
61484;BME280;47349;55.640;37.692;2024-02-21T06:38:08;99932.69;;;-5.69;100.00
61484;BME280;47349;55.640;37.692;2024-02-21T06:40:39;99979.63;;;-5.28;100.00
61484;BME280;47349;55.640;37.692;2024-02-21T06:43:08;99993.69;;;-5.11;100.00
61484;BME280;47349;55.640;37.692;2024-02-21T06:45:36;99991.66;;;-5.05;100.00
61484;BME280;47349;55.640;37.692;2024-02-21T06:48:05;99975.34;;;-5.10;100.00
61484;BME280;47349;55.640;37.692;2024-02-21T06:50:32;99983.47;;;-5.16;100.00
61484;BME280;47349;55.640;37.692;2024-02-21T06:53:00;99993.75;;;-4.94;100.00
61484;BME280;47349;55.640;37.692;2024-02-21T06:55:33;99977.09;;;-5.10;100.00
61484;BME280;47349;55.640;37.692;2024-02-21T06:58:02;100004.50;;;-4.81;100.00
61484;BME280;47349;55.640;37.692;2024-02-21T07:03:26;99993.34;;;-4.85;100.00
61484;BME280;47349;55.640;37.692;2024-02-21T07:05:53;99993.22;;;-4.82;100.00
61484;BME280;47349;55.640;37.692;2024-02-21T07:08:21;99944.19;;;-4.96;100.00
61484;BME280;47349;55.640;37.692;2024-02-21T07:10:52;99924.72;;;-5.07;100.00
61484;BME280;47349;55.640;37.692;2024-02-21T07:13:20;99939.38;;;-5.05;100.00
61484;BME280;47349;55.640;37.692;2024-02-21T07:15:48;99924.53;;;-5.04;100.00
61484;BME280;47349;55.640;37.692;2024-02-21T07:18:16;99963.09;;;-4.72;100.00
61484;BME280;47349;55.640;37.692;2024-02-21T07:20:44;99984.13;;;-4.56;100.00
61484;BME280;47349;55.640;37.692;2024-02-21T07:23:11;99951.19;;;-4.60;100.00
61484;BME280;47349;55.640;37.692;2024-02-21T07:25:39;99965.91;;;-4.40;100.00
61484;BME280;47349;55.640;37.692;2024-02-21T07:28:07;99965.47;;;-4.31;100.00
61484;BME280;47349;55.640;37.692;2024-02-21T07:30:36;99983.06;;;-4.16;100.00
61484;BME280;47349;55.640;37.692;2024-02-21T07:33:04;99891.88;;;-4.59;100.00
61484;BME280;47349;55.640;37.692;2024-02-21T07:35:34;99932.31;;;-4.30;100.00
61484;BME280;47349;55.640;37.692;2024-02-21T07:38:04;99919.31;;;-4.32;100.00
61484;BME280;47349;55.640;37.692;2024-02-21T07:40:33;99951.19;;;-4.06;100.00
61484;BME280;47349;55.640;37.692;2024-02-21T07:43:14;99958.03;;;-4.04;100.00
61484;BME280;47349;55.640;37.692;2024-02-21T07:45:42;99991.59;;;-3.77;100.00
61484;BME280;47349;55.640;37.692;2024-02-21T07:48:10;99952.63;;;-3.83;100.00
61484;BME280;47349;55.640;37.692;2024-02-21T07:50:51;99908.25;;;-4.20;100.00
61484;BME280;47349;55.640;37.692;2024-02-21T07:53:19;99932.69;;;-4.21;100.00
61484;BME280;47349;55.640;37.692;2024-02-21T07:55:47;99944.19;;;-4.23;100.00
61484;BME280;47349;55.640;37.692;2024-02-21T07:58:14;99908.00;;;-4.32;100.00
61484;BME280;47349;55.640;37.692;2024-02-21T08:00:45;99966.28;;;-3.94;100.00
61484;BME280;47349;55.640;37.692;2024-02-21T08:03:12;99925.63;;;-4.19;100.00
61484;BME280;47349;55.640;37.692;2024-02-21T08:05:42;99971.53;;;-3.94;100.00
61484;BME280;47349;55.640;37.692;2024-02-21T08:08:09;99944.63;;;-3.98;100.00
61484;BME280;47349;55.640;37.692;2024-02-21T08:10:39;99931.31;;;-3.93;100.00
61484;BME280;47349;55.640;37.692;2024-02-21T08:13:06;99932.78;;;-3.88;100.00
61484;BME280;47349;55.640;37.692;2024-02-21T08:15:53;99941.69;;;-3.74;100.00
61484;BME280;47349;55.640;37.692;2024-02-21T08:18:21;99923.94;;;-3.85;100.00
61484;BME280;47349;55.640;37.692;2024-02-21T08:20:49;99964.41;;;-3.57;100.00
61484;BME280;47349;55.640;37.692;2024-02-21T08:23:18;99964.03;;;-3.67;100.00
61484;BME280;47349;55.640;37.692;2024-02-21T08:25:46;99918.09;;;-3.90;100.00
61484;BME280;47349;55.640;37.692;2024-02-21T08:28:14;99916.63;;;-3.96;100.00
61484;BME280;47349;55.640;37.692;2024-02-21T08:30:42;99931.78;;;-3.85;100.00
61484;BME280;47349;55.640;37.692;2024-02-21T08:33:15;99921.53;;;-3.90;100.00
61484;BME280;47349;55.640;37.692;2024-02-21T08:35:45;99947.50;;;-3.85;100.00
61484;BME280;47349;55.640;37.692;2024-02-21T08:38:13;99910.91;;;-3.86;100.00
61484;BME280;47349;55.640;37.692;2024-02-21T08:40:40;99921.22;;;-3.50;100.00
61484;BME280;47349;55.640;37.692;2024-02-21T08:43:08;99965.88;;;-2.87;100.00
61484;BME280;47349;55.640;37.692;2024-02-21T08:45:35;99963.09;;;-2.84;100.00
61484;BME280;47349;55.640;37.692;2024-02-21T08:48:03;99957.06;;;-2.86;100.00
61484;BME280;47349;55.640;37.692;2024-02-21T08:50:31;99914.13;;;-2.83;100.00
61484;BME280;47349;55.640;37.692;2024-02-21T08:52:59;99949.22;;;-2.70;100.00
61484;BME280;47349;55.640;37.692;2024-02-21T08:55:34;99971.28;;;-2.90;100.00
61484;BME280;47349;55.640;37.692;2024-02-21T08:58:04;99893.47;;;-3.37;100.00
61484;BME280;47349;55.640;37.692;2024-02-21T09:00:32;99912.31;;;-3.15;100.00
61484;BME280;47349;55.640;37.692;2024-02-21T09:03:01;99955.28;;;-3.01;100.00
61484;BME280;47349;55.640;37.692;2024-02-21T09:05:39;99903.09;;;-3.22;100.00
61484;BME280;47349;55.640;37.692;2024-02-21T09:08:06;99951.59;;;-2.81;100.00
61484;BME280;47349;55.640;37.692;2024-02-21T09:10:46;99947.28;;;-2.82;100.00
61484;BME280;47349;55.640;37.692;2024-02-21T09:13:14;99910.63;;;-3.00;100.00
61484;BME280;47349;55.640;37.692;2024-02-21T09:15:42;99919.53;;;-2.87;100.00
61484;BME280;47349;55.640;37.692;2024-02-21T09:18:10;99950.97;;;-2.71;98.88
61484;BME280;47349;55.640;37.692;2024-02-21T09:20:37;99921.66;;;-2.93;100.00
61484;BME280;47349;55.640;37.692;2024-02-21T09:23:06;99895.41;;;-3.25;99.91
61484;BME280;47349;55.640;37.692;2024-02-21T09:25:33;99896.88;;;-3.03;100.00
61484;BME280;47349;55.640;37.692;2024-02-21T09:28:01;99945.59;;;-2.83;100.00
61484;BME280;47349;55.640;37.692;2024-02-21T09:30:30;99918.16;;;-2.78;99.54
61484;BME280;47349;55.640;37.692;2024-02-21T09:32:57;99939.31;;;-2.81;100.00
61484;BME280;47349;55.640;37.692;2024-02-21T09:35:49;99858.97;;;-3.14;100.00
61484;BME280;47349;55.640;37.692;2024-02-21T09:38:18;99946.34;;;-2.66;100.00
61484;BME280;47349;55.640;37.692;2024-02-21T09:40:45;99888.16;;;-2.88;100.00
61484;BME280;47349;55.640;37.692;2024-02-21T09:43:17;99905.13;;;-2.95;100.00
61484;BME280;47349;55.640;37.692;2024-02-21T09:45:48;99904.56;;;-2.85;100.00
61484;BME280;47349;55.640;37.692;2024-02-21T09:49:13;99928.75;;;-2.79;100.00
61484;BME280;47349;55.640;37.692;2024-02-21T09:51:34;99915.31;;;-2.89;100.00
61484;BME280;47349;55.640;37.692;2024-02-21T09:54:03;99852.72;;;-3.11;100.00
61484;BME280;47349;55.640;37.692;2024-02-21T09:56:45;99925.63;;;-3.02;100.00
61484;BME280;47349;55.640;37.692;2024-02-21T09:59:15;99891.19;;;-3.12;100.00
61484;BME280;47349;55.640;37.692;2024-02-21T10:01:44;99925.09;;;-2.77;100.00
61484;BME280;47349;55.640;37.692;2024-02-21T10:04:14;99885.78;;;-3.08;100.00
61484;BME280;47349;55.640;37.692;2024-02-21T10:06:42;99868.19;;;-3.06;100.00
61484;BME280;47349;55.640;37.692;2024-02-21T10:09:26;99888.56;;;-2.80;100.00
61484;BME280;47349;55.640;37.692;2024-02-21T10:12:18;99920.59;;;-2.59;100.00
61484;BME280;47349;55.640;37.692;2024-02-21T10:14:46;99918.81;;;-2.59;100.00
61484;BME280;47349;55.640;37.692;2024-02-21T10:17:17;99917.00;;;-2.42;99.74
61484;BME280;47349;55.640;37.692;2024-02-21T10:19:47;99934.53;;;-2.27;98.90
61484;BME280;47349;55.640;37.692;2024-02-21T10:22:15;99883.00;;;-2.44;98.69
61484;BME280;47349;55.640;37.692;2024-02-21T10:24:43;99912.34;;;-2.37;99.30
61484;BME280;47349;55.640;37.692;2024-02-21T10:27:11;99875.84;;;-2.56;98.73
61484;BME280;47349;55.640;37.692;2024-02-21T10:29:40;99884.41;;;-2.38;98.39
61484;BME280;47349;55.640;37.692;2024-02-21T10:32:11;99848.56;;;-2.53;97.70
61484;BME280;47349;55.640;37.692;2024-02-21T10:34:42;99912.66;;;-2.27;97.23
61484;BME280;47349;55.640;37.692;2024-02-21T10:37:11;99911.22;;;-2.33;98.49
61484;BME280;47349;55.640;37.692;2024-02-21T10:39:41;99915.09;;;-2.24;98.97
61484;BME280;47349;55.640;37.692;2024-02-21T10:42:29;99925.88;;;-2.29;97.84
61484;BME280;47349;55.640;37.692;2024-02-21T10:45:01;99850.66;;;-2.90;99.47
61484;BME280;47349;55.640;37.692;2024-02-21T10:47:43;99917.78;;;-2.40;98.89
61484;BME280;47349;55.640;37.692;2024-02-21T10:50:17;99865.50;;;-2.59;98.39
61484;BME280;47349;55.640;37.692;2024-02-21T10:52:48;99917.59;;;-2.37;98.98
61484;BME280;47349;55.640;37.692;2024-02-21T10:55:37;99897.25;;;-2.64;98.36
61484;BME280;47349;55.640;37.692;2024-02-21T10:58:07;99916.25;;;-2.44;98.92
61484;BME280;47349;55.640;37.692;2024-02-21T11:00:39;99893.78;;;-2.64;99.38
61484;BME280;47349;55.640;37.692;2024-02-21T11:03:09;99912.69;;;-2.43;99.33
61484;BME280;47349;55.640;37.692;2024-02-21T11:05:37;99883.38;;;-2.66;99.02
61484;BME280;47349;55.640;37.692;2024-02-21T11:08:05;99835.28;;;-2.96;99.27
61484;BME280;47349;55.640;37.692;2024-02-21T11:10:36;99864.00;;;-2.63;99.20
61484;BME280;47349;55.640;37.692;2024-02-21T11:13:07;99912.13;;;-2.48;99.09
61484;BME280;47349;55.640;37.692;2024-02-21T11:15:36;99812.59;;;-2.97;99.83
61484;BME280;47349;55.640;37.692;2024-02-21T11:18:09;99866.06;;;-2.84;99.45
61484;BME280;47349;55.640;37.692;2024-02-21T11:20:53;99902.34;;;-2.61;99.45
61484;BME280;47349;55.640;37.692;2024-02-21T11:23:26;99853.88;;;-2.85;99.47
61484;BME280;47349;55.640;37.692;2024-02-21T11:26:07;99879.63;;;-2.62;99.91
61484;BME280;47349;55.640;37.692;2024-02-21T11:28:36;99892.59;;;-2.59;100.00
61484;BME280;47349;55.640;37.692;2024-02-21T11:31:12;99818.19;;;-3.19;100.00
61484;BME280;47349;55.640;37.692;2024-02-21T11:33:53;99845.53;;;-3.23;100.00
61484;BME280;47349;55.640;37.692;2024-02-21T11:36:51;99875.38;;;-3.26;100.00
61484;BME280;47349;55.640;37.692;2024-02-21T11:39:26;99808.09;;;-3.57;100.00
61484;BME280;47349;55.640;37.692;2024-02-21T11:42:09;99883.75;;;-3.03;100.00
61484;BME280;47349;55.640;37.692;2024-02-21T11:44:42;99836.06;;;-3.26;100.00
61484;BME280;47349;55.640;37.692;2024-02-21T11:47:24;99820.94;;;-3.52;100.00
61484;BME280;47349;55.640;37.692;2024-02-21T11:49:52;99820.25;;;-3.56;100.00
61484;BME280;47349;55.640;37.692;2024-02-21T11:52:36;99874.03;;;-3.33;100.00
61484;BME280;47349;55.640;37.692;2024-02-21T11:55:16;99819.06;;;-3.50;100.00
61484;BME280;47349;55.640;37.692;2024-02-21T11:57:58;99851.69;;;-3.40;100.00
61484;BME280;47349;55.640;37.692;2024-02-21T12:00:31;99828.94;;;-3.40;100.00
61484;BME280;47349;55.640;37.692;2024-02-21T12:03:00;99860.56;;;-3.11;100.00
61484;BME280;47349;55.640;37.692;2024-02-21T12:05:30;99836.56;;;-3.35;100.00
61484;BME280;47349;55.640;37.692;2024-02-21T12:08:12;99846.97;;;-3.33;100.00
61484;BME280;47349;55.640;37.692;2024-02-21T12:10:56;99849.84;;;-3.38;100.00
61484;BME280;47349;55.640;37.692;2024-02-21T12:13:24;99873.84;;;-3.30;100.00
61484;BME280;47349;55.640;37.692;2024-02-21T12:15:52;99869.88;;;-3.21;100.00
61484;BME280;47349;55.640;37.692;2024-02-21T12:18:33;99843.22;;;-3.45;100.00
61484;BME280;47349;55.640;37.692;2024-02-21T12:21:05;99840.69;;;-3.31;100.00
61484;BME280;47349;55.640;37.692;2024-02-21T12:23:46;99823.81;;;-3.41;100.00
61484;BME280;47349;55.640;37.692;2024-02-21T12:26:16;99862.09;;;-3.23;100.00
61484;BME280;47349;55.640;37.692;2024-02-21T12:28:58;99812.78;;;-3.64;100.00
61484;BME280;47349;55.640;37.692;2024-02-21T12:31:27;99860.47;;;-3.41;100.00
61484;BME280;47349;55.640;37.692;2024-02-21T12:33:55;99788.38;;;-3.80;100.00
61484;BME280;47349;55.640;37.692;2024-02-21T12:36:36;99805.75;;;-3.79;100.00
61484;BME280;47349;55.640;37.692;2024-02-21T12:39:12;99826.81;;;-3.80;100.00
61484;BME280;47349;55.640;37.692;2024-02-21T12:41:41;99778.28;;;-4.03;100.00
61484;BME280;47349;55.640;37.692;2024-02-21T12:44:14;99778.34;;;-4.05;100.00
61484;BME280;47349;55.640;37.692;2024-02-21T12:46:44;99783.03;;;-3.94;100.00
61484;BME280;47349;55.640;37.692;2024-02-21T12:49:18;99766.44;;;-4.10;100.00
61484;BME280;47349;55.640;37.692;2024-02-21T12:51:46;99833.47;;;-3.91;100.00
61484;BME280;47349;55.640;37.692;2024-02-21T12:54:27;99789.59;;;-4.03;100.00
61484;BME280;47349;55.640;37.692;2024-02-21T12:56:57;99806.50;;;-3.93;100.00
61484;BME280;47349;55.640;37.692;2024-02-21T12:59:43;99775.41;;;-3.99;100.00
61484;BME280;47349;55.640;37.692;2024-02-21T13:02:25;99829.19;;;-3.76;100.00
61484;BME280;47349;55.640;37.692;2024-02-21T13:05:09;99821.91;;;-3.71;100.00
61484;BME280;47349;55.640;37.692;2024-02-21T13:07:51;99793.66;;;-3.97;100.00
61484;BME280;47349;55.640;37.692;2024-02-21T13:10:33;99859.63;;;-3.57;100.00
61484;BME280;47349;55.640;37.692;2024-02-21T13:13:15;99838.13;;;-3.64;100.00
61484;BME280;47349;55.640;37.692;2024-02-21T13:15:47;99810.56;;;-3.87;100.00
61484;BME280;47349;55.640;37.692;2024-02-21T13:18:17;99838.22;;;-3.66;100.00
61484;BME280;47349;55.640;37.692;2024-02-21T13:20:45;99824.44;;;-3.85;100.00
61484;BME280;47349;55.640;37.692;2024-02-21T13:23:13;99809.19;;;-3.94;100.00
61484;BME280;47349;55.640;37.692;2024-02-21T13:25:43;99791.22;;;-4.00;100.00
61484;BME280;47349;55.640;37.692;2024-02-21T13:28:14;99783.03;;;-4.27;100.00
61484;BME280;47349;55.640;37.692;2024-02-21T13:30:44;99822.38;;;-3.96;100.00
61484;BME280;47349;55.640;37.692;2024-02-21T13:33:14;99820.50;;;-3.94;100.00
61484;BME280;47349;55.640;37.692;2024-02-21T13:35:43;99786.84;;;-4.17;100.00
61484;BME280;47349;55.640;37.692;2024-02-21T13:38:12;99784.16;;;-4.16;100.00
61484;BME280;47349;55.640;37.692;2024-02-21T13:40:44;99850.16;;;-3.60;100.00
61484;BME280;47349;55.640;37.692;2024-02-21T13:43:15;99777.06;;;-4.14;100.00
61484;BME280;47349;55.640;37.692;2024-02-21T13:45:56;99824.34;;;-3.83;100.00
61484;BME280;47349;55.640;37.692;2024-02-21T13:48:24;99827.13;;;-3.86;100.00
61484;BME280;47349;55.640;37.692;2024-02-21T13:50:58;99845.63;;;-3.74;100.00
61484;BME280;47349;55.640;37.692;2024-02-21T13:53:26;99820.00;;;-4.00;100.00
61484;BME280;47349;55.640;37.692;2024-02-21T13:55:54;99802.75;;;-4.04;100.00
61484;BME280;47349;55.640;37.692;2024-02-21T13:58:35;99839.34;;;-3.87;100.00
61484;BME280;47349;55.640;37.692;2024-02-21T14:01:03;99849.56;;;-3.98;100.00
61484;BME280;47349;55.640;37.692;2024-02-21T14:03:31;99807.63;;;-4.14;100.00
61484;BME280;47349;55.640;37.692;2024-02-21T14:05:59;99801.69;;;-4.18;100.00
61484;BME280;47349;55.640;37.692;2024-02-21T14:08:27;99770.66;;;-4.41;100.00
61484;BME280;47349;55.640;37.692;2024-02-21T14:11:09;99792.16;;;-4.19;100.00
61484;BME280;47349;55.640;37.692;2024-02-21T14:13:38;99853.38;;;-3.88;100.00
61484;BME280;47349;55.640;37.692;2024-02-21T14:16:25;99783.72;;;-4.24;100.00
61484;BME280;47349;55.640;37.692;2024-02-21T14:18:53;99827.75;;;-3.99;100.00
61484;BME280;47349;55.640;37.692;2024-02-21T14:21:24;99857.38;;;-3.81;100.00
61484;BME280;47349;55.640;37.692;2024-02-21T14:24:01;99830.50;;;-4.18;100.00
61484;BME280;47349;55.640;37.692;2024-02-21T14:26:32;99851.09;;;-3.94;100.00
61484;BME280;47349;55.640;37.692;2024-02-21T14:29:03;99867.50;;;-3.91;100.00
61484;BME280;47349;55.640;37.692;2024-02-21T14:31:41;99830.97;;;-4.27;100.00
61484;BME280;47349;55.640;37.692;2024-02-21T14:34:23;99852.88;;;-4.12;100.00
61484;BME280;47349;55.640;37.692;2024-02-21T14:36:51;99872.50;;;-4.03;100.00
61484;BME280;47349;55.640;37.692;2024-02-21T14:39:19;99786.19;;;-4.55;100.00
61484;BME280;47349;55.640;37.692;2024-02-21T14:41:49;99783.59;;;-4.55;100.00
61484;BME280;47349;55.640;37.692;2024-02-21T14:44:17;99845.72;;;-4.26;100.00
61484;BME280;47349;55.640;37.692;2024-02-21T14:46:59;99865.91;;;-4.10;100.00
61484;BME280;47349;55.640;37.692;2024-02-21T14:49:27;99822.97;;;-4.41;100.00
61484;BME280;47349;55.640;37.692;2024-02-21T14:51:56;99858.97;;;-4.11;100.00
61484;BME280;47349;55.640;37.692;2024-02-21T14:54:34;99864.88;;;-4.08;100.00
61484;BME280;47349;55.640;37.692;2024-02-21T14:57:15;99856.81;;;-4.21;100.00
61484;BME280;47349;55.640;37.692;2024-02-21T14:59:47;99812.06;;;-4.49;100.00
61484;BME280;47349;55.640;37.692;2024-02-21T15:02:31;99843.34;;;-4.30;100.00
61484;BME280;47349;55.640;37.692;2024-02-21T15:05:15;99790.53;;;-4.54;100.00
61484;BME280;47349;55.640;37.692;2024-02-21T15:08:03;99815.28;;;-4.44;100.00
61484;BME280;47349;55.640;37.692;2024-02-21T15:10:46;99870.03;;;-4.06;100.00
61484;BME280;47349;55.640;37.692;2024-02-21T15:13:28;99828.44;;;-4.46;100.00
61484;BME280;47349;55.640;37.692;2024-02-21T15:16:11;99800.53;;;-4.62;100.00
61484;BME280;47349;55.640;37.692;2024-02-21T15:18:42;99841.59;;;-4.47;100.00
61484;BME280;47349;55.640;37.692;2024-02-21T15:21:20;99864.03;;;-4.26;100.00
61484;BME280;47349;55.640;37.692;2024-02-21T15:24:01;99835.75;;;-4.52;100.00
61484;BME280;47349;55.640;37.692;2024-02-21T15:26:42;99806.66;;;-4.81;100.00
61484;BME280;47349;55.640;37.692;2024-02-21T15:29:25;99802.59;;;-4.69;100.00
61484;BME280;47349;55.640;37.692;2024-02-21T15:31:57;99792.78;;;-4.64;100.00
61484;BME280;47349;55.640;37.692;2024-02-21T15:34:38;99865.44;;;-4.36;100.00
61484;BME280;47349;55.640;37.692;2024-02-21T15:37:09;99846.69;;;-4.44;100.00
61484;BME280;47349;55.640;37.692;2024-02-21T15:39:54;99842.19;;;-4.59;100.00
61484;BME280;47349;55.640;37.692;2024-02-21T15:42:23;99837.66;;;-4.56;100.00
61484;BME280;47349;55.640;37.692;2024-02-21T15:44:54;99848.69;;;-4.49;100.00
61484;BME280;47349;55.640;37.692;2024-02-21T15:47:35;99865.28;;;-4.33;100.00
61484;BME280;47349;55.640;37.692;2024-02-21T15:50:09;99820.28;;;-4.57;100.00
61484;BME280;47349;55.640;37.692;2024-02-21T15:52:56;99775.53;;;-4.68;100.00
61484;BME280;47349;55.640;37.692;2024-02-21T15:55:24;99827.16;;;-4.54;100.00
61484;BME280;47349;55.640;37.692;2024-02-21T15:57:51;99806.06;;;-4.86;100.00
61484;BME280;47349;55.640;37.692;2024-02-21T16:00:29;99819.50;;;-4.76;100.00
61484;BME280;47349;55.640;37.692;2024-02-21T16:03:01;99763.31;;;-5.02;100.00
61484;BME280;47349;55.640;37.692;2024-02-21T16:05:49;99781.75;;;-4.88;100.00
61484;BME280;47349;55.640;37.692;2024-02-21T16:08:19;99832.28;;;-4.53;100.00
61484;BME280;47349;55.640;37.692;2024-02-21T16:11:05;99857.53;;;-4.34;100.00
61484;BME280;47349;55.640;37.692;2024-02-21T16:13:41;99783.59;;;-4.73;100.00
61484;BME280;47349;55.640;37.692;2024-02-21T16:16:28;99842.22;;;-4.42;100.00
61484;BME280;47349;55.640;37.692;2024-02-21T16:18:58;99835.75;;;-4.52;100.00
61484;BME280;47349;55.640;37.692;2024-02-21T16:21:28;99845.66;;;-4.24;100.00
61484;BME280;47349;55.640;37.692;2024-02-21T16:24:11;99807.97;;;-4.37;100.00
61484;BME280;47349;55.640;37.692;2024-02-21T16:26:40;99841.75;;;-4.33;100.00
61484;BME280;47349;55.640;37.692;2024-02-21T17:34:42;99819.38;;;-4.38;100.00
61484;BME280;47349;55.640;37.692;2024-02-21T17:37:21;99753.28;;;-4.94;100.00